Time;durP1;ratioP1;P1;durP2;ratioP2;P2;SDS_P1;SDS_P2;PMS_P1;PMS_P2;Temp;Humidity;BMP_temperature;BMP_pressure;BME280_temperature;BME280_humidity;BME280_pressure;Samples;Min_cycle;Max_cycle;Signal;HPM_P1;HPM_P2
2024/04/06 00:00:49;;;;;;;;;6.00;5.00;;;;;19.65;100.00;100468.75;2079794;28;46366;-68
2024/04/06 00:01:50;;;;;;;;;6.00;6.00;;;;;19.63;100.00;100466.16;2074134;28;46430;-67
2024/04/06 00:02:50;;;;;;;;;5.33;5.33;;;;;19.61;100.00;100460.00;2077334;28;46806;-68
2024/04/06 00:03:50;;;;;;;;;4.00;4.00;;;;;19.63;100.00;100460.78;2078581;28;48083;-67
2024/04/06 00:04:56;;;;;;;;;3.00;3.00;;;;;19.61;100.00;100451.94;2078451;28;46266;-68
2024/04/06 00:05:57;;;;;;;;;5.25;5.25;;;;;19.65;100.00;100455.28;2080333;28;46395;-66
2024/04/06 00:06:57;;;;;;;;;5.67;5.67;;;;;19.65;100.00;100458.84;2080021;28;46435;-66
2024/04/06 00:07:57;;;;;;;;;6.00;6.00;;;;;19.65;100.00;100449.91;2079285;28;46593;-67
2024/04/06 00:08:58;;;;;;;;;6.00;6.00;;;;;19.63;100.00;100452.69;2080478;28;45660;-67
2024/04/06 00:09:58;;;;;;;;;4.00;4.00;;;;;19.64;100.00;100457.13;2080722;28;46551;-67
2024/04/06 00:10:58;;;;;;;;;6.00;6.00;;;;;19.64;100.00;100446.34;2080364;28;45560;-67
2024/04/06 00:11:58;;;;;;;;;6.00;6.00;;;;;19.64;100.00;100451.72;2072485;28;46155;-66
2024/04/06 00:12:59;;;;;;;;;6.67;5.67;;;;;19.64;100.00;100456.25;2071558;28;46638;-66
2024/04/06 00:13:59;;;;;;;;;7.00;5.67;;;;;19.63;100.00;100447.31;2079992;28;46873;-67
2024/04/06 00:14:59;;;;;;;;;6.00;5.00;;;;;19.62;100.00;100447.41;2080256;28;46549;-67
2024/04/06 00:16:00;;;;;;;;;5.67;5.67;;;;;19.62;100.00;100447.41;2078147;28;46137;-67
2024/04/06 00:17:00;;;;;;;;;7.00;6.33;;;;;19.61;100.00;100449.25;2076138;28;46034;-67
2024/04/06 00:18:00;;;;;;;;;4.00;4.00;;;;;19.61;100.00;100457.31;2080207;28;46513;-66
2024/04/06 00:19:01;;;;;;;;;4.33;4.33;;;;;19.61;100.00;100457.31;2080074;28;46477;-66
2024/04/06 00:20:03;;;;;;;;;6.00;6.00;;;;;19.62;100.00;100458.19;2080397;28;46181;-66
2024/04/06 00:21:04;;;;;;;;;4.25;4.25;;;;;19.60;100.00;100442.13;2080313;28;46604;-67
2024/04/06 00:22:04;;;;;;;;;5.00;5.00;;;;;19.59;100.00;100450.31;2079002;28;46173;-68
2024/04/06 00:23:04;;;;;;;;;7.67;6.33;;;;;19.57;100.00;100457.63;2080553;28;47072;-68
2024/04/06 00:24:05;;;;;;;;;5.00;5.00;;;;;19.58;100.00;100452.13;2078144;28;46708;-68
2024/04/06 00:25:05;;;;;;;;;6.00;6.00;;;;;19.59;100.00;100453.84;2079164;28;46149;-66
2024/04/06 00:26:05;;;;;;;;;5.00;5.00;;;;;19.60;100.00;100457.41;2079603;28;46309;-66
2024/04/06 00:27:06;;;;;;;;;6.00;6.00;;;;;19.59;100.00;100455.69;2079722;28;46177;-68
2024/04/06 00:28:06;;;;;;;;;6.00;6.00;;;;;19.60;100.00;100454.72;2075303;28;46489;-67
2024/04/06 00:29:06;;;;;;;;;5.00;4.67;;;;;19.58;100.00;100445.88;2079317;28;46637;-67
2024/04/06 00:30:07;;;;;;;;;5.33;5.33;;;;;19.59;100.00;100453.00;2076631;28;46927;-68
2024/04/06 00:31:07;;;;;;;;;5.67;5.67;;;;;19.59;100.00;100439.53;2077700;28;46410;-68
2024/04/06 00:32:08;;;;;;;;;6.33;6.33;;;;;19.58;100.00;100441.38;2079945;28;46540;-67
2024/04/06 00:33:08;;;;;;;;;6.00;6.00;;;;;19.58;100.00;100437.81;2079416;28;46424;-67
2024/04/06 00:34:08;;;;;;;;;7.00;7.00;;;;;19.60;100.00;100447.50;2071181;28;46292;-67
2024/04/06 00:35:09;;;;;;;;;5.00;5.00;;;;;19.60;100.00;100446.66;2069622;28;47502;-66
2024/04/06 00:36:09;;;;;;;;;8.33;6.33;;;;;19.57;100.00;100445.03;2077288;28;46536;-67
2024/04/06 00:37:09;;;;;;;;;4.00;4.00;;;;;19.58;100.00;100440.50;2061875;28;45030;-68
2024/04/06 00:38:10;;;;;;;;;5.00;5.00;;;;;19.59;100.00;100442.22;2057349;28;47704;-68
2024/04/06 00:39:10;;;;;;;;;4.67;4.67;;;;;19.57;100.00;100433.38;2075892;28;45681;-66
2024/04/06 00:40:11;;;;;;;;;5.00;5.00;;;;;19.58;100.00;100440.50;2078807;28;46263;-67
2024/04/06 00:41:11;;;;;;;;;5.33;4.33;;;;;19.58;100.00;100429.72;2079888;28;46326;-67
2024/04/06 00:42:11;;;;;;;;;4.00;4.00;;;;;19.57;100.00;100428.00;2070981;28;47257;-67
2024/04/06 00:43:12;;;;;;;;;7.33;6.00;;;;;19.56;100.00;100420.88;2070527;28;46171;-67
2024/04/06 00:44:12;;;;;;;;;5.00;5.00;;;;;19.55;100.00;100421.81;2079727;28;46856;-67
2024/04/06 00:45:13;;;;;;;;;4.00;4.00;;;;;19.53;100.00;100419.19;2079621;28;46793;-67
2024/04/06 00:46:13;;;;;;;;;4.00;4.00;;;;;19.52;100.00;100422.84;2077520;28;46576;-67
2024/04/06 00:47:13;;;;;;;;;5.33;5.33;;;;;19.47;100.00;100416.91;2079902;28;45761;-68
2024/04/06 00:48:14;;;;;;;;;5.00;5.00;;;;;19.47;100.00;100418.75;2078437;28;46234;-66
2024/04/06 00:49:14;;;;;;;;;6.00;6.00;;;;;19.51;100.00;100420.28;2080107;28;46307;-67
2024/04/06 00:50:15;;;;;;;;;6.00;6.00;;;;;19.57;100.00;100425.31;2075341;28;47421;-67
2024/04/06 00:51:16;;;;;;;;;3.75;3.25;;;;;19.58;100.00;100425.22;2069604;28;46755;-68
2024/04/06 00:52:16;;;;;;;;;5.00;5.00;;;;;19.59;100.00;100426.06;2071871;28;46236;-67
2024/04/06 00:53:17;;;;;;;;;6.33;6.33;;;;;19.60;100.00;100431.34;2080384;28;45486;-67
2024/04/06 00:54:17;;;;;;;;;5.67;4.67;;;;;19.59;100.00;100426.06;2077756;28;46464;-67
2024/04/06 00:55:17;;;;;;;;;6.00;6.00;;;;;19.60;100.00;100431.34;2068163;28;46020;-68
2024/04/06 00:56:18;;;;;;;;;6.00;5.00;;;;;19.59;100.00;100426.94;2068593;28;46856;-67
2024/04/06 00:57:19;;;;;;;;;4.00;4.00;;;;;19.60;100.00;100436.75;2079837;28;46404;-66
2024/04/06 00:58:19;;;;;;;;;5.00;5.00;;;;;19.59;100.00;100429.63;2079836;28;46638;-67
2024/04/06 00:59:20;;;;;;;;;4.00;4.00;;;;;19.60;100.00;100428.66;2078707;28;46591;-67
2024/04/06 01:00:21;;;;;;;;;4.33;4.33;;;;;19.59;100.00;100424.25;2079145;28;46207;-66
2024/04/06 01:01:21;;;;;;;;;5.00;5.00;;;;;19.60;100.00;100425.13;2079626;28;46425;-65
2024/04/06 01:02:21;;;;;;;;;6.00;6.00;;;;;19.54;100.00;100429.00;2079227;28;46588;-68
2024/04/06 01:03:22;;;;;;;;;7.00;7.00;;;;;19.53;100.00;100424.59;2079701;28;46602;-68
2024/04/06 01:04:22;;;;;;;;;6.00;5.67;;;;;19.51;100.00;100420.28;2082059;28;46495;-68
2024/04/06 01:05:23;;;;;;;;;5.67;5.67;;;;;19.49;100.00;100417.69;2076681;28;46821;-68
2024/04/06 01:06:23;;;;;;;;;5.67;5.67;;;;;19.47;100.00;100416.91;2080222;28;45622;-67
2024/04/06 01:07:23;;;;;;;;;3.67;3.67;;;;;19.47;100.00;100416.06;2075188;28;45038;-68
2024/04/06 01:08:24;;;;;;;;;6.67;6.00;;;;;19.46;100.00;100404.44;2080208;28;46376;-68
2024/04/06 01:09:24;;;;;;;;;6.33;5.33;;;;;19.47;100.00;100407.97;2078567;28;46610;-67
2024/04/06 01:10:27;;;;;;;;;5.33;5.33;;;;;19.47;100.00;100399.91;2078885;28;46261;-66
2024/04/06 01:11:27;;;;;;;;;6.75;6.75;;;;;19.47;100.00;100398.06;2078564;28;46440;-67
2024/04/06 01:12:27;;;;;;;;;5.00;4.33;;;;;19.47;100.00;100394.53;2070044;28;46707;-68
2024/04/06 01:13:28;;;;;;;;;6.00;6.00;;;;;19.47;100.00;100391.84;2070669;28;46552;-67
2024/04/06 01:14:28;;;;;;;;;6.33;6.33;;;;;19.47;100.00;100392.69;2079934;28;46492;-67
2024/04/06 01:15:32;;;;;;;;;5.00;5.00;;;;;19.46;100.00;100395.50;2079693;28;46945;-68
2024/04/06 01:16:32;;;;;;;;;6.00;6.00;;;;;19.46;100.00;100392.78;2078158;28;46404;-71
2024/04/06 01:17:32;;;;;;;;;7.33;6.33;;;;;19.44;100.00;100392.91;2078013;28;46751;-67
2024/04/06 01:18:33;;;;;;;;;8.33;7.00;;;;;19.44;100.00;100390.22;2079282;28;47003;-67
2024/04/06 01:19:34;;;;;;;;;6.00;6.00;;;;;19.44;100.00;100395.59;2078793;28;46421;-67
2024/04/06 01:20:35;;;;;;;;;5.25;5.25;;;;;19.43;100.00;100399.22;2072370;28;46444;-67
2024/04/06 01:21:36;;;;;;;;;4.00;4.00;;;;;19.43;100.00;100399.22;2070181;28;46362;-67
2024/04/06 01:22:37;;;;;;;;;7.33;7.33;;;;;19.42;100.00;100395.66;2079389;28;46867;-67
2024/04/06 01:23:37;;;;;;;;;6.00;5.00;;;;;19.42;100.00;100397.47;2073760;28;46359;-68
2024/04/06 01:24:37;;;;;;;;;6.33;6.33;;;;;19.40;100.00;100394.91;2053593;28;46767;-67
2024/04/06 01:25:38;;;;;;;;;7.67;7.33;;;;;19.40;100.00;100389.50;2054146;28;46300;-68
2024/04/06 01:26:38;;;;;;;;;5.00;5.00;;;;;19.39;100.00;100382.41;2079430;28;45717;-67
2024/04/06 01:27:38;;;;;;;;;4.33;3.33;;;;;19.38;100.00;100377.13;2079595;28;46428;-67
2024/04/06 01:28:41;;;;;;;;;6.33;5.33;;;;;19.38;100.00;100374.44;2078223;28;46704;-67
2024/04/06 01:29:42;;;;;;;;;5.00;5.00;;;;;19.36;100.00;100377.22;2076881;28;46510;-67
2024/04/06 01:30:42;;;;;;;;;6.00;5.00;;;;;19.34;100.00;100370.22;2076855;28;47129;-68
2024/04/06 01:31:43;;;;;;;;;7.00;7.00;;;;;19.33;100.00;100382.81;2074329;28;45996;-68
2024/04/06 01:32:50;;;;;;;;;5.33;5.33;;;;;19.32;100.00;100382.91;2067955;28;46550;-68
2024/04/06 01:33:50;;;;;;;;;5.50;5.50;;;;;19.33;100.00;100393.56;2070040;28;46455;-68
2024/04/06 01:34:51;;;;;;;;;5.00;5.00;;;;;19.33;100.00;100395.41;2078333;28;45932;-69
2024/04/06 01:35:51;;;;;;;;;5.00;5.00;;;;;19.33;100.00;100403.47;2077623;28;46513;-68
2024/04/06 01:36:51;;;;;;;;;5.00;5.00;;;;;19.33;100.00;100395.41;2076791;28;46604;-68
2024/04/06 01:37:52;;;;;;;;;6.33;6.33;;;;;19.34;100.00;100399.81;2076519;28;46585;-68
2024/04/06 01:38:52;;;;;;;;;7.00;7.00;;;;;19.32;100.00;100397.22;2077393;28;46701;-67
2024/04/06 01:39:52;;;;;;;;;4.33;4.33;;;;;19.32;100.00;100394.53;2075994;28;46914;-68
2024/04/06 01:40:53;;;;;;;;;6.00;6.00;;;;;19.33;100.00;100398.09;2077663;28;45494;-67
2024/04/06 01:41:53;;;;;;;;;5.67;5.67;;;;;19.32;100.00;100389.16;2079641;28;46233;-67
2024/04/06 01:42:53;;;;;;;;;7.00;7.00;;;;;19.32;100.00;100383.78;2060785;28;46206;-67
2024/04/06 01:43:54;;;;;;;;;6.00;6.00;;;;;19.31;100.00;100370.38;2062420;28;46681;-67
2024/04/06 01:44:54;;;;;;;;;6.00;6.00;;;;;19.31;100.00;100365.91;2077559;28;46717;-67
2024/04/06 01:45:54;;;;;;;;;7.33;6.00;;;;;19.30;100.00;100366.84;2079516;28;46754;-68
2024/04/06 01:46:55;;;;;;;;;6.33;6.33;;;;;19.30;100.00;100363.28;2079549;28;46488;-67
2024/04/06 01:47:55;;;;;;;;;6.00;5.67;;;;;19.30;100.00;100365.97;2075602;28;46628;-68
2024/04/06 01:48:56;;;;;;;;;8.33;6.67;;;;;19.29;100.00;100367.81;2069488;28;46810;-68
2024/04/06 01:50:01;;;;;;;;;6.00;6.00;;;;;19.28;100.00;100368.75;2069140;28;45821;-68
2024/04/06 01:51:01;;;;;;;;;5.25;5.25;;;;;19.27;100.00;100363.47;2069248;28;46669;-67
2024/04/06 01:52:02;;;;;;;;;6.00;6.00;;;;;19.27;100.00;100363.47;2069549;28;45767;-66
2024/04/06 01:53:03;;;;;;;;;9.33;7.00;;;;;19.24;100.00;100356.47;2070871;28;46752;-67
2024/04/06 01:54:03;;;;;;;;;5.67;5.67;;;;;19.24;100.00;100361.00;2070441;28;45883;-67
2024/04/06 01:55:05;;;;;;;;;7.67;6.00;;;;;19.22;100.00;100361.09;2038096;28;46746;-67
2024/04/06 01:56:05;;;;;;;;;6.00;6.00;;;;;19.21;100.00;100367.44;2037634;28;45809;-67
2024/04/06 01:57:05;;;;;;;;;6.67;6.67;;;;;19.22;100.00;100371.84;2068446;28;46383;-67
2024/04/06 01:58:06;;;;;;;;;6.67;6.67;;;;;19.21;100.00;100364.75;2067035;28;45980;-67
2024/04/06 01:59:07;;;;;;;;;7.00;7.00;;;;;19.22;100.00;100362.91;2065551;28;46553;-67
2024/04/06 02:00:08;;;;;;;;;6.00;6.00;;;;;19.20;100.00;100360.34;2068774;28;46126;-66
2024/04/06 02:01:08;;;;;;;;;6.33;5.67;;;;;19.20;100.00;100354.09;2045546;28;46610;-68
2024/04/06 02:02:09;;;;;;;;;5.67;5.67;;;;;19.19;100.00;100350.53;2040052;28;46354;-66
2024/04/06 02:03:09;;;;;;;;;7.67;7.33;;;;;19.19;100.00;100349.69;2070128;28;46005;-67
2024/04/06 02:04:10;;;;;;;;;6.67;6.00;;;;;19.39;100.00;100350.13;2070230;28;46300;-67
2024/04/06 02:05:10;;;;;;;;;6.33;6.33;;;;;19.38;100.00;100347.53;2070569;28;46235;-66
2024/04/06 02:06:11;;;;;;;;;7.33;7.33;;;;;19.36;100.00;100350.31;2070134;28;46656;-67
2024/04/06 02:07:12;;;;;;;;;9.00;7.33;;;;;19.36;100.00;100349.47;2068084;28;45781;-66
2024/04/06 02:08:13;;;;;;;;;5.25;5.25;;;;;19.38;100.00;100355.59;2069777;28;46787;-67
2024/04/06 02:09:13;;;;;;;;;7.00;7.00;;;;;19.35;100.00;100350.41;2070409;28;45699;-67
2024/04/06 02:10:13;;;;;;;;;11.33;7.00;;;;;19.38;100.00;100369.91;2062037;28;46876;-66
2024/04/06 02:11:14;;;;;;;;;8.67;7.33;;;;;19.36;100.00;100370.97;2061821;28;46419;-67
2024/04/06 02:12:15;;;;;;;;;8.00;7.00;;;;;19.34;100.00;100367.53;2065163;28;45874;-66
2024/04/06 02:13:16;;;;;;;;;7.00;7.00;;;;;19.32;100.00;100375.69;2065335;28;45154;-68
2024/04/06 02:14:16;;;;;;;;;6.00;6.00;;;;;19.32;100.00;100369.47;2063445;28;45304;-67
2024/04/06 02:15:16;;;;;;;;;6.67;6.67;;;;;19.35;100.00;100371.94;2070193;28;45630;-67
2024/04/06 02:16:17;;;;;;;;;7.00;7.00;;;;;19.32;100.00;100370.31;2070863;28;46788;-67
2024/04/06 02:17:17;;;;;;;;;9.67;7.67;;;;;19.33;100.00;100376.56;2066848;28;46601;-67
2024/04/06 02:18:17;;;;;;;;;7.00;7.00;;;;;19.35;100.00;100378.19;2063220;28;46245;-67
2024/04/06 02:19:18;;;;;;;;;2.00;2.00;;;;;19.32;100.00;100374.84;2063410;28;46287;-68
2024/04/06 02:20:18;;;;;;;;;6.00;6.00;;;;;19.33;100.00;100365.81;2065529;28;46547;-66
2024/04/06 02:21:18;;;;;;;;;7.00;7.00;;;;;19.34;100.00;100354.06;2079405;28;46841;-67
2024/04/06 02:22:19;;;;;;;;;6.00;6.00;;;;;19.34;100.00;100346.88;2077948;28;46710;-68
2024/04/06 02:23:19;;;;;;;;;6.00;6.00;;;;;19.33;100.00;100345.13;2080061;28;45935;-67
2024/04/06 02:24:20;;;;;;;;;8.33;7.33;;;;;19.33;100.00;100360.41;2078920;28;47046;-68
2024/04/06 02:25:21;;;;;;;;;7.67;7.00;;;;;19.30;100.00;100355.22;2070595;28;45810;-68
2024/04/06 02:26:22;;;;;;;;;7.00;6.50;;;;;19.34;100.00;100354.94;2071032;28;45710;-68
2024/04/06 02:27:22;;;;;;;;;7.00;6.00;;;;;19.30;100.00;100352.53;2079333;28;46396;-68
2024/04/06 02:28:22;;;;;;;;;7.00;7.00;;;;;19.38;100.00;100347.53;2079136;28;45589;-68
2024/04/06 02:29:23;;;;;;;;;7.67;7.67;;;;;19.36;100.00;100352.16;2070308;28;46851;-68
2024/04/06 02:30:23;;;;;;;;;8.00;8.00;;;;;19.41;100.00;100353.56;2068973;28;46514;-67
2024/04/06 02:31:23;;;;;;;;;6.67;6.67;;;;;19.41;100.00;100350.00;2078141;28;46202;-68
2024/04/06 02:32:24;;;;;;;;;7.33;7.33;;;;;19.38;100.00;100345.69;2079291;28;46604;-67
2024/04/06 02:33:24;;;;;;;;;8.00;7.00;;;;;19.24;100.00;100348.41;2078341;28;46675;-67
2024/04/06 02:34:24;;;;;;;;;6.67;6.67;;;;;19.24;100.00;100348.41;2077608;28;46733;-66
2024/04/06 02:35:25;;;;;;;;;7.00;7.00;;;;;19.18;100.00;100351.47;2078854;28;46125;-68
2024/04/06 02:36:25;;;;;;;;;8.00;8.00;;;;;19.24;100.00;100351.09;2079225;28;45165;-67
2024/04/06 02:37:25;;;;;;;;;8.67;8.67;;;;;19.22;100.00;100349.47;2079493;28;46398;-67
2024/04/06 02:38:26;;;;;;;;;5.33;5.33;;;;;19.23;100.00;100338.63;2077647;28;46553;-67
2024/04/06 02:39:26;;;;;;;;;8.00;8.00;;;;;19.23;100.00;100338.63;2078236;28;46829;-67
2024/04/06 02:40:26;;;;;;;;;7.00;7.00;;;;;19.18;100.00;100332.63;2077643;28;45632;-68
2024/04/06 02:41:27;;;;;;;;;7.00;7.00;;;;;19.18;100.00;100337.16;2079065;28;45846;-67
2024/04/06 02:42:27;;;;;;;;;9.67;7.00;;;;;19.09;100.00;100323.34;2079315;28;46115;-67
2024/04/06 02:43:28;;;;;;;;;6.67;6.67;;;;;18.99;100.00;100327.56;2076714;28;46800;-66
2024/04/06 02:44:28;;;;;;;;;10.00;10.00;;;;;18.94;100.00;100321.63;2077899;28;46280;-68
2024/04/06 02:45:28;;;;;;;;;9.33;9.33;;;;;18.94;100.00;100334.22;2078711;28;45466;-67
2024/04/06 02:46:29;;;;;;;;;9.33;8.67;;;;;18.93;100.00;100321.69;2075377;28;46703;-67
2024/04/06 02:47:29;;;;;;;;;7.00;6.00;;;;;18.92;100.00;100320.84;2079446;28;45937;-67
2024/04/06 02:48:30;;;;;;;;;7.67;6.67;;;;;18.94;100.00;100326.16;2077731;28;46212;-67
2024/04/06 02:49:30;;;;;;;;;7.67;6.00;;;;;18.93;100.00;100327.97;2078685;28;46437;-68
2024/04/06 02:50:31;;;;;;;;;7.00;7.00;;;;;18.93;100.00;100336.03;2061313;28;46270;-67
2024/04/06 02:51:32;;;;;;;;;6.75;6.75;;;;;18.95;100.00;100325.19;2061875;28;46654;-68
2024/04/06 02:52:32;;;;;;;;;6.00;6.00;;;;;18.95;100.00;100325.19;2061747;28;45637;-68
2024/04/06 02:53:32;;;;;;;;;8.33;7.33;;;;;18.94;100.00;100316.25;2061314;28;46348;-67
2024/04/06 02:54:33;;;;;;;;;9.00;9.00;;;;;18.94;100.00;100315.38;2060410;28;46791;-67
2024/04/06 02:55:33;;;;;;;;;6.00;6.00;;;;;18.93;100.00;100311.84;2062048;28;46320;-67
2024/04/06 02:56:34;;;;;;;;;5.00;5.00;;;;;18.91;100.00;100304.81;2060622;28;46301;-66
2024/04/06 02:57:34;;;;;;;;;5.67;5.67;;;;;18.97;100.00;100310.69;2061850;28;46391;-67
2024/04/06 02:58:35;;;;;;;;;6.33;6.33;;;;;18.98;100.00;100306.16;2063259;28;46966;-67
2024/04/06 02:59:35;;;;;;;;;10.00;7.00;;;;;18.91;100.00;100316.41;2064046;28;46343;-67
2024/04/06 03:00:37;;;;;;;;;9.00;8.00;;;;;18.96;100.00;100316.16;2065701;28;46704;-67
2024/04/06 03:01:38;;;;;;;;;7.50;7.50;;;;;18.97;100.00;100313.38;2063029;28;46066;-68
2024/04/06 03:02:39;;;;;;;;;7.00;7.00;;;;;18.96;100.00;100314.31;2060432;28;46636;-66
2024/04/06 03:03:39;;;;;;;;;4.00;2.00;;;;;18.97;100.00;100320.56;2061787;28;45829;-67
2024/04/06 03:04:41;;;;;;;;;5.67;5.67;;;;;18.97;100.00;100321.44;2068094;28;46363;-67
2024/04/06 03:05:41;;;;;;;;;5.00;5.00;;;;;18.95;100.00;100314.44;2062813;28;46335;-66
2024/04/06 03:06:41;;;;;;;;;6.00;6.00;;;;;18.95;100.00;100319.81;2063682;28;46490;-67
2024/04/06 03:07:44;;;;;;;;;6.00;5.67;;;;;18.93;100.00;100314.53;2063399;28;46421;-68
2024/04/06 03:08:44;;;;;;;;;3.75;3.75;;;;;18.93;100.00;100316.31;2064091;28;46657;-67
2024/04/06 03:09:46;;;;;;;;;7.00;7.00;;;;;18.91;100.00;100315.56;2063840;28;46587;-68
2024/04/06 03:10:46;;;;;;;;;7.50;7.00;;;;;18.91;100.00;100318.25;2062986;28;46641;-67
2024/04/06 03:11:47;;;;;;;;;6.00;6.00;;;;;18.87;100.00;100314.88;2061856;28;46065;-68
2024/04/06 03:12:47;;;;;;;;;7.00;7.00;;;;;18.87;100.00;100319.41;2063239;28;46658;-67
2024/04/06 03:13:47;;;;;;;;;4.33;4.33;;;;;18.85;100.00;100318.63;2062872;28;45742;-68
2024/04/06 03:14:48;;;;;;;;;7.00;6.00;;;;;18.88;100.00;100318.44;2068083;28;46267;-68
2024/04/06 03:15:48;;;;;;;;;5.67;5.67;;;;;18.90;100.00;100316.53;2064213;28;46241;-68
2024/04/06 03:16:49;;;;;;;;;8.33;5.33;;;;;18.90;100.00;100314.69;2046962;28;45761;-68
2024/04/06 03:17:49;;;;;;;;;5.50;5.50;;;;;18.89;100.00;100317.47;2047151;28;46265;-67
2024/04/06 03:18:50;;;;;;;;;6.00;6.00;;;;;18.88;100.00;100308.56;2062299;28;46263;-67
2024/04/06 03:19:50;;;;;;;;;7.67;6.33;;;;;18.87;100.00;100312.19;2060599;28;45534;-67
2024/04/06 03:20:50;;;;;;;;;5.67;5.67;;;;;18.87;100.00;100312.19;2060811;28;46105;-68
2024/04/06 03:21:51;;;;;;;;;4.33;4.33;;;;;18.86;100.00;100305.09;2066562;28;46631;-67
2024/04/06 03:23:02;;;;;;;;;5.00;4.00;;;;;18.86;100.00;100310.47;2080797;28;44957;-68
2024/04/06 03:24:02;;;;;;;;;4.25;4.25;;;;;18.84;100.00;100300.78;2080247;28;47098;-68
2024/04/06 03:25:04;;;;;;;;;4.67;4.67;;;;;18.81;100.00;100304.53;2070613;28;46510;-67
2024/04/06 03:26:04;;;;;;;;;6.75;5.50;;;;;18.81;100.00;100302.72;2071112;28;46268;-67
2024/04/06 03:27:04;;;;;;;;;4.33;3.67;;;;;18.84;100.00;100298.09;2080448;28;46267;-67
2024/04/06 03:28:05;;;;;;;;;4.33;4.33;;;;;18.85;100.00;100297.13;2071782;28;46670;-66
2024/04/06 03:29:05;;;;;;;;;6.00;5.00;;;;;18.86;100.00;100297.03;2069771;28;46654;-67
2024/04/06 03:30:06;;;;;;;;;5.00;4.67;;;;;18.87;100.00;100295.22;2080892;28;46553;-67
2024/04/06 03:31:06;;;;;;;;;5.00;5.00;;;;;18.83;100.00;100302.63;2078888;28;46251;-67
2024/04/06 03:32:07;;;;;;;;;6.33;5.33;;;;;18.75;100.00;100297.69;2080980;28;47173;-66
2024/04/06 03:33:07;;;;;;;;;3.33;3.33;;;;;18.82;100.00;100298.19;2080137;28;46393;-67
2024/04/06 03:34:07;;;;;;;;;6.67;6.67;;;;;18.82;100.00;100303.56;2080921;28;46875;-67
2024/04/06 03:35:08;;;;;;;;;5.00;5.00;;;;;18.83;100.00;100299.06;2080608;28;46583;-68
2024/04/06 03:36:08;;;;;;;;;5.00;5.00;;;;;18.81;100.00;100291.97;2079171;28;45479;-67
2024/04/06 03:37:08;;;;;;;;;3.67;2.33;;;;;18.81;100.00;100289.25;2063006;28;46521;-66
2024/04/06 03:38:09;;;;;;;;;4.00;4.00;;;;;18.80;100.00;100295.59;2062562;28;46239;-67
2024/04/06 03:39:09;;;;;;;;;4.00;4.00;;;;;18.85;100.00;100294.44;2080735;28;45284;-67
2024/04/06 03:40:10;;;;;;;;;5.00;4.67;;;;;18.86;100.00;100291.66;2075453;28;46476;-67
2024/04/06 03:41:10;;;;;;;;;2.67;2.67;;;;;18.86;100.00;100294.34;2075794;28;46790;-68
2024/04/06 03:42:12;;;;;;;;;5.00;5.00;;;;;18.88;100.00;100286.19;2068623;28;45755;-69
2024/04/06 03:43:12;;;;;;;;;3.75;3.75;;;;;18.88;100.00;100286.19;2071390;28;46504;-68
2024/04/06 03:44:12;;;;;;;;;4.00;4.00;;;;;18.88;100.00;100291.56;2079454;28;46861;-67
2024/04/06 03:45:13;;;;;;;;;5.33;5.33;;;;;18.89;100.00;100283.38;2080587;28;46683;-66
2024/04/06 03:46:13;;;;;;;;;5.00;4.00;;;;;18.89;100.00;100290.59;2077325;28;46386;-68
2024/04/06 03:47:13;;;;;;;;;5.00;4.67;;;;;18.89;100.00;100287.91;2076114;28;46737;-66
2024/04/06 03:48:13;;;;;;;;;5.00;5.00;;;;;18.88;100.00;100288.88;2078038;28;46451;-66
2024/04/06 03:49:14;;;;;;;;;2.00;2.00;;;;;18.87;100.00;100282.63;2079440;28;46010;-67
2024/04/06 03:50:15;;;;;;;;;5.00;4.00;;;;;18.84;100.00;100281.97;2079524;28;46231;-67
2024/04/06 03:51:15;;;;;;;;;3.00;3.00;;;;;18.84;100.00;100281.97;2080544;28;46992;-68
2024/04/06 03:52:16;;;;;;;;;7.33;6.00;;;;;18.83;100.00;100280.25;2076600;28;46309;-67
2024/04/06 03:53:29;;;;;;;;;3.00;2.67;;;;;18.81;100.00;100274.97;2078568;28;46315;-68
2024/04/06 03:54:29;;;;;;;;;3.75;3.75;;;;;18.80;100.00;100267.81;2073907;28;47069;-67
2024/04/06 03:55:30;;;;;;;;;5.00;5.00;;;;;18.77;100.00;100276.09;2077108;28;46488;-66
2024/04/06 03:56:30;;;;;;;;;5.33;4.67;;;;;18.74;100.00;100269.09;2077297;28;46049;-67
2024/04/06 03:57:30;;;;;;;;;6.33;5.33;;;;;18.72;100.00;100276.41;2076610;28;46616;-67
2024/04/06 03:58:31;;;;;;;;;4.00;4.00;;;;;18.70;100.00;100274.75;2081393;28;46634;-67
2024/04/06 03:59:32;;;;;;;;;4.67;4.00;;;;;18.67;100.00;100270.41;2078794;28;46292;-67
2024/04/06 04:00:32;;;;;;;;;3.25;3.25;;;;;18.64;100.00;100272.44;2078983;28;48119;-66
2024/04/06 04:01:33;;;;;;;;;4.67;3.67;;;;;18.64;100.00;100262.56;2080249;28;46628;-66
2024/04/06 04:02:34;;;;;;;;;4.75;3.75;;;;;18.61;100.00;100265.41;2078091;28;46155;-66
2024/04/06 04:03:34;;;;;;;;;4.00;4.00;;;;;18.61;100.00;100264.53;2081427;28;46420;-66
2024/04/06 04:04:34;;;;;;;;;3.00;3.00;;;;;18.59;100.00;100266.47;2080510;28;46833;-67
2024/04/06 04:05:35;;;;;;;;;5.00;4.00;;;;;18.58;100.00;100256.69;2078637;28;46454;-66
2024/04/06 04:06:35;;;;;;;;;3.00;3.00;;;;;18.56;100.00;100247.84;2078949;28;46147;-67
2024/04/06 04:07:35;;;;;;;;;4.00;4.00;;;;;18.54;100.00;100253.28;2075068;28;45964;-66
2024/04/06 04:08:36;;;;;;;;;4.00;4.00;;;;;18.53;100.00;100249.75;2069813;28;46285;-66
2024/04/06 04:09:36;;;;;;;;;4.00;4.00;;;;;18.52;100.00;100245.34;2069448;28;46209;-68
2024/04/06 04:10:37;;;;;;;;;4.00;3.33;;;;;18.53;100.00;100238.13;2073614;28;46329;-68
2024/04/06 04:11:37;;;;;;;;;2.33;2.33;;;;;18.53;100.00;100248.88;2076453;28;46465;-68
2024/04/06 04:12:37;;;;;;;;;4.00;4.00;;;;;18.51;100.00;100240.91;2076866;28;46309;-67
2024/04/06 04:13:38;;;;;;;;;3.00;2.00;;;;;18.52;100.00;100248.03;2080653;28;46272;-67
2024/04/06 04:14:38;;;;;;;;;4.00;4.00;;;;;18.50;100.00;100252.63;2077407;28;46787;-67
2024/04/06 04:15:39;;;;;;;;;2.00;2.00;;;;;18.47;100.00;100246.59;2074971;28;46621;-67
2024/04/06 04:16:40;;;;;;;;;3.00;3.00;;;;;18.45;100.00;100244.00;2077378;28;46779;-66
2024/04/06 04:17:40;;;;;;;;;3.33;3.33;;;;;18.45;100.00;100254.75;2078851;28;46696;-67
2024/04/06 04:18:40;;;;;;;;;2.67;2.67;;;;;18.44;100.00;100239.59;2078961;28;46357;-66
2024/04/06 04:19:41;;;;;;;;;3.00;3.00;;;;;18.46;100.00;100237.66;2082069;28;46610;-67
2024/04/06 04:20:41;;;;;;;;;3.00;3.00;;;;;18.47;100.00;100243.91;2079729;28;46437;-68
2024/04/06 04:21:42;;;;;;;;;2.00;2.00;;;;;18.47;100.00;100234.03;2078941;28;46284;-67
2024/04/06 04:22:42;;;;;;;;;3.33;3.33;;;;;18.45;100.00;100232.41;2077439;28;46207;-66
2024/04/06 04:23:44;;;;;;;;;3.00;3.00;;;;;18.46;100.00;100231.44;2076368;28;46673;-67
2024/04/06 04:24:45;;;;;;;;;3.00;3.00;;;;;18.45;100.00;100224.34;2079347;28;46882;-67
2024/04/06 04:25:45;;;;;;;;;3.67;3.67;;;;;18.45;100.00;100232.41;2079050;28;46513;-68
2024/04/06 04:26:45;;;;;;;;;2.00;2.00;;;;;18.39;100.00;100225.56;2078351;28;47982;-68
2024/04/06 04:27:46;;;;;;;;;2.00;2.00;;;;;18.36;100.00;100224.88;2080105;28;46511;-66
2024/04/06 04:28:46;;;;;;;;;2.67;2.67;;;;;18.35;100.00;100220.47;2080070;28;46985;-67
2024/04/06 04:29:46;;;;;;;;;4.33;3.00;;;;;18.43;100.00;100220.88;2079651;28;46778;-67
2024/04/06 04:30:47;;;;;;;;;2.67;2.00;;;;;18.43;100.00;100228.94;2079150;28;46248;-67
2024/04/06 04:31:47;;;;;;;;;3.67;3.67;;;;;18.47;100.00;100222.41;2078942;28;45791;-68
2024/04/06 04:32:49;;;;;;;;;3.00;2.00;;;;;18.40;100.00;100218.34;2080008;28;46311;-66
2024/04/06 04:33:49;;;;;;;;;3.00;2.50;;;;;18.37;100.00;100227.47;2080476;28;47025;-67
2024/04/06 04:34:49;;;;;;;;;2.00;2.00;;;;;18.35;100.00;100229.41;2080277;28;46251;-67
2024/04/06 04:35:50;;;;;;;;;2.67;2.67;;;;;18.33;100.00;100223.25;2079999;28;46585;-67
2024/04/06 04:36:50;;;;;;;;;3.33;1.67;;;;;18.28;100.00;100224.50;2079872;28;46473;-69
2024/04/06 04:37:51;;;;;;;;;2.67;2.67;;;;;18.26;100.00;100221.03;2079063;28;46222;-68
2024/04/06 04:38:51;;;;;;;;;3.00;2.00;;;;;18.30;100.00;100223.47;2077967;28;45509;-69